createdAt,value
2022-11-20T00:00:55.645Z,41.40
2022-11-20T00:03:23.520Z,35.80
2022-11-20T00:05:51.280Z,39.97
2022-11-20T00:08:19.117Z,37.13
2022-11-20T00:10:46.816Z,40.70
2022-11-20T00:13:14.568Z,39.97
2022-11-20T00:15:42.310Z,37.65
2022-11-20T00:18:11.398Z,39.63
2022-11-20T00:20:39.123Z,41.60
2022-11-20T00:23:07.854Z,36.08
2022-11-20T00:25:36.211Z,42.90
2022-11-20T00:28:04.064Z,37.33
2022-11-20T00:30:31.802Z,38.72
2022-11-20T00:32:59.697Z,40.70
2022-11-20T00:35:28.807Z,37.97
2022-11-20T00:37:56.546Z,36.35
2022-11-20T00:40:24.308Z,38.97
2022-11-20T00:42:52.072Z,38.45
2022-11-20T00:45:19.858Z,39.53
2022-11-20T00:47:47.576Z,36.47
2022-11-20T00:50:15.548Z,35.10
2022-11-20T00:52:44.670Z,39.10
2022-11-20T00:55:12.362Z,35.80
2022-11-20T00:57:40.079Z,33.55
2022-11-20T01:00:09.499Z,38.47
2022-11-20T01:05:05.194Z,34.50
2022-11-20T01:07:34.135Z,34.45
2022-11-20T01:10:03.215Z,35.70
2022-11-20T01:12:30.963Z,34.83
2022-11-20T01:14:58.705Z,34.13
2022-11-20T01:17:26.453Z,34.47
2022-11-20T01:19:54.224Z,33.83
2022-11-20T01:22:21.999Z,30.25
2022-11-20T01:24:49.741Z,36.83
2022-11-20T01:27:18.861Z,30.48
2022-11-20T01:29:46.578Z,34.50
2022-11-20T01:32:14.318Z,36.78
2022-11-20T01:34:42.084Z,30.65
2022-11-20T01:37:09.833Z,34.30
2022-11-20T01:39:37.542Z,28.73
2022-11-20T01:42:23.322Z,34.33
2022-11-20T01:44:58.107Z,31.45
2022-11-20T01:47:34.043Z,37.88
2022-11-20T01:50:06.522Z,33.67
2022-11-20T01:52:38.543Z,28.50
2022-11-20T01:55:09.334Z,35.58
2022-11-20T01:57:37.915Z,32.25
2022-11-20T02:00:10.391Z,35.20
2022-11-20T02:02:43.098Z,30.95
2022-11-20T02:05:26.012Z,28.73
2022-11-20T02:07:56.462Z,30.38
2022-11-20T02:10:24.293Z,32.20
2022-11-20T02:13:09.922Z,31.38
2022-11-20T02:15:39.175Z,32.80
2022-11-20T02:18:07.950Z,31.55
2022-11-20T02:20:35.766Z,28.92
2022-11-20T02:23:09.601Z,29.75
2022-11-20T02:25:39.736Z,30.08
2022-11-20T02:28:07.958Z,31.08
2022-11-20T02:30:35.727Z,32.25
2022-11-20T02:33:03.491Z,27.52
2022-11-20T02:35:44.006Z,30.55
2022-11-20T02:38:12.465Z,29.02
2022-11-20T02:40:41.797Z,30.07
2022-11-20T02:45:38.202Z,32.75
2022-11-20T02:48:07.710Z,28.88
2022-11-20T02:50:35.586Z,31.98
2022-11-20T02:53:03.311Z,32.50
2022-11-20T02:55:31.110Z,32.88
2022-11-20T02:58:00.183Z,29.42
2022-11-20T03:00:27.968Z,32.95
2022-11-20T03:02:55.742Z,31.77
2022-11-20T03:05:23.816Z,30.45
2022-11-20T03:07:51.696Z,31.73
2022-11-20T03:10:19.555Z,29.65
2022-11-20T03:12:47.409Z,30.00
2022-11-20T03:15:16.713Z,32.10
2022-11-20T03:20:12.957Z,30.02
2022-11-20T03:22:40.737Z,30.90
2022-11-20T03:25:09.199Z,30.60
2022-11-20T03:27:37.041Z,31.93
2022-11-20T03:30:06.441Z,31.98
2022-11-20T03:35:03.207Z,38.97
2022-11-20T03:37:30.959Z,40.85
2022-11-20T03:39:58.698Z,44.35
2022-11-20T03:42:44.062Z,34.42
2022-11-20T03:45:11.982Z,33.55
2022-11-20T03:47:41.121Z,38.00
2022-11-20T03:50:09.885Z,35.47
2022-11-20T03:52:37.631Z,41.58
2022-11-20T03:55:06.028Z,38.20
2022-11-20T03:57:33.802Z,33.60
2022-11-20T04:00:01.632Z,35.47
2022-11-20T04:02:32.266Z,39.30
2022-11-20T04:05:01.384Z,34.20
2022-11-20T04:07:29.189Z,34.80
2022-11-20T04:09:56.948Z,37.67
2022-11-20T04:12:24.747Z,22.23
2022-11-20T04:14:52.494Z,33.65
2022-11-20T04:17:20.276Z,30.23
2022-11-20T04:19:48.653Z,35.20
2022-11-20T04:22:17.710Z,27.45
2022-11-20T04:24:45.440Z,26.95
2022-11-20T04:27:13.159Z,24.23
2022-11-20T04:29:40.919Z,25.58
2022-11-20T04:32:08.689Z,26.15
2022-11-20T04:34:36.701Z,24.15
2022-11-20T04:37:04.440Z,27.85
2022-11-20T04:39:33.550Z,23.13
2022-11-20T04:42:15.183Z,24.77
2022-11-20T04:44:42.919Z,25.48
2022-11-20T04:47:10.662Z,25.10
2022-11-20T04:49:38.439Z,24.38
2022-11-20T04:52:06.195Z,25.63
2022-11-20T04:54:35.502Z,22.48
2022-11-20T04:59:30.886Z,29.60
2022-11-20T05:01:58.879Z,29.65
2022-11-20T05:04:26.679Z,22.85
2022-11-20T05:06:54.468Z,28.05
2022-11-20T05:09:22.669Z,24.65
2022-11-20T05:11:52.040Z,26.60
2022-11-20T05:14:19.818Z,29.38
2022-11-20T05:16:48.028Z,28.35
2022-11-20T05:19:16.067Z,30.50
2022-11-20T05:21:43.821Z,32.63
2022-11-20T05:24:11.793Z,37.03
2022-11-20T05:26:39.523Z,40.65
2022-11-20T05:29:08.662Z,47.47
2022-11-20T05:31:37.116Z,41.33
2022-11-20T05:34:04.911Z,44.63
2022-11-20T05:36:32.720Z,50.33
2022-11-20T05:39:01.903Z,47.40
2022-11-20T05:43:58.243Z,54.08
2022-11-20T05:46:28.989Z,48.63
2022-11-20T05:48:58.162Z,46.10
2022-11-20T05:51:26.877Z,50.10
2022-11-20T05:53:54.712Z,46.38
2022-11-20T05:56:23.641Z,45.00
2022-11-20T05:58:51.640Z,50.53
2022-11-20T06:01:21.195Z,36.80
2022-11-20T06:03:51.643Z,35.58
2022-11-20T06:06:20.620Z,34.88
2022-11-20T06:08:49.009Z,33.22
2022-11-20T06:11:18.210Z,33.35
2022-11-20T06:13:46.382Z,29.67
2022-11-20T06:16:18.303Z,27.77
2022-11-20T06:18:46.180Z,35.13
2022-11-20T06:21:17.350Z,30.27
2022-11-20T06:23:46.348Z,29.85
2022-11-20T06:26:16.012Z,34.33
2022-11-20T06:28:44.016Z,32.50
2022-11-20T06:31:14.291Z,34.58
2022-11-20T06:33:42.269Z,35.20
2022-11-20T06:36:11.586Z,31.77
2022-11-20T06:41:09.492Z,34.30
2022-11-20T06:43:37.216Z,31.83
2022-11-20T06:46:05.084Z,32.20
2022-11-20T06:48:32.967Z,31.70
2022-11-20T06:51:00.797Z,30.20
2022-11-20T06:53:28.558Z,30.08
2022-11-20T06:55:58.750Z,26.92
2022-11-20T06:58:29.345Z,30.42
2022-11-20T07:01:00.490Z,29.52
2022-11-20T07:03:28.352Z,32.58
2022-11-20T07:05:57.633Z,30.73
2022-11-20T07:08:25.734Z,27.60
2022-11-20T07:10:53.518Z,27.85
2022-11-20T07:13:22.620Z,30.48
2022-11-20T07:15:50.363Z,32.28
2022-11-20T07:18:18.146Z,31.25
2022-11-20T07:20:46.006Z,30.65
2022-11-20T07:23:13.807Z,33.30
2022-11-20T07:25:41.567Z,32.42
2022-11-20T07:28:11.557Z,33.20
2022-11-20T07:30:40.722Z,33.45
2022-11-20T07:33:08.653Z,34.35
2022-11-20T07:35:36.841Z,30.90
2022-11-20T07:38:04.646Z,32.40
2022-11-20T07:40:32.402Z,33.15
2022-11-20T07:43:00.144Z,35.28
2022-11-20T07:45:27.922Z,36.35
2022-11-20T07:47:57.041Z,35.80
2022-11-20T07:50:24.812Z,40.45
2022-11-20T07:52:53.123Z,37.22
2022-11-20T07:55:20.917Z,35.30
2022-11-20T07:57:55.882Z,39.67
2022-11-20T08:00:23.844Z,35.25
2022-11-20T08:02:51.650Z,41.03
2022-11-20T08:05:20.797Z,39.75
2022-11-20T08:07:48.689Z,41.35
2022-11-20T08:10:17.938Z,42.00
2022-11-20T08:13:04.609Z,56.45
2022-11-20T08:15:32.846Z,42.67
2022-11-20T08:20:54.605Z,41.25
2022-11-20T08:23:22.385Z,79.88
2022-11-20T08:25:51.759Z,40.78
2022-11-20T08:30:50.823Z,34.38
2022-11-20T08:33:19.381Z,35.97
2022-11-20T08:35:47.649Z,31.50
2022-11-20T08:38:16.851Z,29.20
2022-11-20T08:41:06.224Z,34.03
2022-11-20T08:43:34.519Z,32.28
2022-11-20T08:46:02.381Z,32.70
2022-11-20T08:48:30.136Z,30.02
2022-11-20T08:51:00.023Z,36.60
2022-11-20T08:53:29.297Z,31.52
2022-11-20T08:55:58.955Z,37.10
2022-11-20T08:58:27.091Z,30.05
2022-11-20T09:00:55.004Z,29.90
2022-11-20T09:03:23.046Z,32.42
2022-11-20T09:05:51.514Z,31.52
2022-11-20T09:08:19.273Z,28.47
2022-11-20T09:10:53.481Z,29.52
2022-11-20T09:13:24.584Z,27.40
2022-11-20T09:15:55.389Z,32.40
2022-11-20T09:18:23.691Z,32.92
2022-11-20T09:20:51.563Z,33.25
2022-11-20T09:23:22.331Z,33.97
2022-11-20T09:25:51.433Z,30.13
2022-11-20T09:28:19.551Z,39.38
2022-11-20T09:30:47.351Z,33.33
2022-11-20T09:33:15.123Z,41.13
2022-11-20T09:35:44.402Z,36.20
2022-11-20T09:38:12.802Z,34.58
2022-11-20T09:40:46.293Z,36.75
2022-11-20T09:43:21.022Z,34.17
2022-11-20T09:46:08.061Z,36.53
2022-11-20T09:49:03.985Z,32.92
2022-11-20T09:51:42.654Z,35.60
2022-11-20T09:54:18.968Z,41.50
2022-11-20T09:56:51.192Z,39.15
2022-11-20T09:59:37.217Z,38.33
2022-11-20T10:02:17.102Z,42.20
2022-11-20T10:04:49.769Z,39.63
2022-11-20T10:07:32.697Z,39.95
2022-11-20T10:10:01.677Z,39.40
2022-11-20T10:12:40.824Z,38.05
2022-11-20T10:15:22.206Z,40.63
2022-11-20T10:18:04.056Z,39.42
2022-11-20T10:20:40.229Z,40.97
2022-11-20T10:23:29.498Z,37.17
2022-11-20T10:28:54.035Z,41.67
2022-11-20T10:31:33.607Z,40.33
2022-11-20T10:34:12.492Z,40.25
2022-11-20T10:36:45.558Z,44.33
2022-11-20T10:39:21.137Z,48.20
2022-11-20T10:41:53.856Z,41.35
2022-11-20T10:44:37.012Z,41.83
2022-11-20T10:47:07.869Z,36.28
2022-11-20T10:49:36.567Z,39.63
2022-11-20T10:52:13.036Z,40.88
2022-11-20T10:54:49.924Z,41.88
2022-11-20T10:57:29.868Z,48.05
2022-11-20T11:00:04.252Z,40.90
2022-11-20T11:02:42.428Z,33.65
2022-11-20T11:05:24.880Z,38.00
2022-11-20T11:07:56.893Z,37.53
2022-11-20T11:10:27.981Z,33.90
2022-11-20T11:12:56.294Z,37.85
2022-11-20T11:15:29.862Z,34.45
2022-11-20T11:17:59.050Z,34.30
2022-11-20T11:20:27.828Z,31.80
2022-11-20T11:22:57.493Z,29.95
2022-11-20T11:25:31.138Z,30.40
2022-11-20T11:28:02.475Z,34.53
2022-11-20T11:30:32.868Z,25.95
2022-11-20T11:33:11.685Z,29.83
2022-11-20T11:35:50.027Z,34.90
2022-11-20T11:38:23.794Z,29.88
2022-11-20T11:40:54.942Z,25.20
2022-11-20T11:43:42.336Z,28.90
2022-11-20T11:46:32.617Z,27.52
2022-11-20T11:49:03.081Z,23.95
2022-11-20T11:51:36.704Z,21.30
2022-11-20T11:54:13.469Z,21.40
2022-11-20T11:56:41.564Z,22.60
2022-11-20T11:59:14.501Z,21.08
2022-11-20T12:01:50.128Z,17.23
2022-11-20T12:04:31.746Z,19.15
2022-11-20T12:07:18.221Z,17.02
2022-11-20T12:09:55.625Z,18.50
2022-11-20T12:12:29.427Z,15.75
2022-11-20T12:14:58.803Z,19.45
2022-11-20T12:19:55.744Z,12.45
2022-11-20T12:22:32.367Z,16.55
2022-11-20T12:25:06.609Z,14.73
2022-11-20T12:27:46.620Z,14.70
2022-11-20T12:30:16.555Z,13.95
2022-11-20T12:33:08.221Z,10.57
2022-11-20T12:35:53.958Z,13.90
2022-11-20T12:38:40.815Z,15.75
2022-11-20T12:41:38.524Z,14.43
2022-11-20T12:44:37.781Z,10.30
2022-11-20T12:49:49.319Z,11.55
2022-11-20T12:52:35.627Z,7.55
2022-11-20T12:55:15.103Z,7.45
2022-11-20T12:57:50.756Z,16.02
2022-11-20T13:00:21.642Z,13.73
2022-11-20T13:03:30.710Z,13.13
2022-11-20T13:08:35.229Z,8.52
2022-11-20T13:11:11.799Z,6.38
2022-11-20T13:13:47.706Z,10.45
2022-11-20T13:16:21.973Z,5.90
2022-11-20T13:18:49.919Z,9.20
2022-11-20T13:21:19.656Z,9.85
2022-11-20T13:23:49.113Z,7.72
2022-11-20T13:26:23.000Z,9.07
2022-11-20T13:29:13.178Z,8.23
2022-11-20T13:31:45.587Z,16.65
2022-11-20T13:34:25.005Z,9.23
2022-11-20T13:36:55.326Z,6.90
2022-11-20T13:39:29.128Z,13.57
2022-11-20T13:41:58.046Z,6.38
2022-11-20T13:44:31.124Z,10.40
2022-11-20T13:46:58.998Z,5.40
2022-11-20T13:49:31.796Z,7.05
2022-11-20T13:52:10.739Z,8.75
2022-11-20T13:55:04.086Z,3.83
2022-11-20T13:58:01.785Z,5.65
2022-11-20T14:00:29.889Z,6.63
2022-11-20T14:03:09.249Z,7.43
2022-11-20T14:10:40.161Z,3.55
2022-11-20T14:13:19.689Z,4.35
2022-11-20T14:15:47.624Z,4.18
2022-11-20T14:18:17.298Z,6.78
2022-11-20T14:20:45.336Z,4.43
2022-11-20T14:23:13.367Z,3.25
2022-11-20T14:25:47.368Z,5.15
2022-11-20T14:28:26.803Z,2.47
2022-11-20T14:30:59.354Z,4.20
2022-11-20T14:33:29.009Z,3.85
2022-11-20T14:35:59.103Z,5.47
2022-11-20T14:38:29.258Z,3.92
2022-11-20T14:41:08.214Z,10.90
2022-11-20T14:43:37.004Z,3.65
2022-11-20T14:46:06.866Z,4.22
2022-11-20T14:48:39.176Z,8.73
2022-11-20T14:51:07.215Z,10.52
2022-11-20T14:53:35.258Z,6.38
2022-11-20T14:56:04.850Z,5.80
2022-11-20T14:58:35.257Z,6.53
2022-11-20T15:01:06.197Z,4.65
2022-11-20T15:03:35.235Z,4.85
2022-11-20T15:06:03.868Z,3.22
2022-11-20T15:08:32.247Z,3.40
2022-11-20T15:11:00.863Z,5.50
2022-11-20T15:13:33.289Z,6.28
2022-11-20T15:16:03.321Z,3.15
2022-11-20T15:18:33.885Z,3.70
2022-11-20T15:21:04.696Z,9.77
2022-11-20T15:23:32.851Z,9.05
2022-11-20T15:26:00.856Z,9.93
2022-11-20T15:28:32.861Z,8.27
2022-11-20T15:31:03.319Z,9.52
2022-11-20T15:33:31.471Z,8.68
2022-11-20T15:35:59.746Z,7.90
2022-11-20T15:38:27.998Z,6.15
2022-11-20T15:40:56.017Z,9.77
2022-11-20T15:43:24.013Z,14.60
2022-11-20T15:45:57.664Z,18.77
2022-11-20T15:48:31.575Z,4.03
2022-11-20T15:51:03.288Z,4.35
2022-11-20T15:53:31.304Z,5.63
2022-11-20T15:55:59.429Z,12.25
2022-11-20T15:58:27.944Z,9.50
2022-11-20T16:00:58.610Z,4.50
2022-11-20T16:03:26.563Z,4.75
2022-11-20T16:05:54.481Z,6.05
2022-11-20T16:08:22.541Z,10.52
2022-11-20T16:10:50.699Z,3.58
2022-11-20T16:13:37.317Z,2.45
2022-11-20T16:16:10.171Z,4.55
2022-11-20T16:18:38.255Z,3.67
2022-11-20T16:21:06.792Z,5.78
2022-11-20T16:23:35.292Z,4.55
2022-11-20T16:26:11.363Z,4.80
2022-11-20T16:28:39.380Z,3.72
2022-11-20T16:31:12.799Z,4.82
2022-11-20T16:33:40.977Z,2.15
2022-11-20T16:36:10.890Z,2.63
2022-11-20T16:38:39.089Z,2.53
2022-11-20T16:41:14.197Z,2.92
2022-11-20T16:43:48.378Z,4.78
2022-11-20T16:46:18.885Z,2.22
2022-11-20T16:48:47.013Z,2.13
2022-11-20T16:51:14.983Z,2.22
2022-11-20T16:53:43.563Z,2.40
2022-11-20T16:56:13.461Z,2.75
2022-11-20T16:58:41.502Z,1.42
2022-11-20T17:01:10.754Z,2.33
2022-11-20T17:06:13.933Z,5.53
2022-11-20T17:08:42.120Z,6.05
2022-11-20T17:11:12.116Z,3.63
2022-11-20T17:13:40.606Z,5.03
2022-11-20T17:16:10.573Z,3.00
2022-11-20T17:18:40.334Z,9.13
2022-11-20T17:21:09.058Z,6.95
2022-11-20T17:23:39.596Z,8.38
2022-11-20T17:26:09.482Z,27.52
2022-11-20T17:28:38.094Z,11.48
2022-11-20T17:31:08.609Z,11.35
2022-11-20T17:33:38.215Z,10.90
2022-11-20T17:36:09.689Z,73.45
2022-11-20T17:38:37.969Z,17.88
2022-11-20T17:41:07.484Z,13.65
2022-11-20T17:43:37.062Z,9.63
2022-11-20T17:46:06.852Z,12.18
2022-11-20T17:48:34.755Z,9.00
2022-11-20T17:51:03.293Z,11.20
2022-11-20T17:53:35.046Z,10.18
2022-11-20T17:56:20.485Z,11.15
2022-11-20T17:58:48.350Z,12.93
2022-11-20T18:01:18.061Z,10.77
2022-11-20T18:03:46.626Z,7.40
2022-11-20T18:06:17.049Z,10.35
2022-11-20T18:08:47.081Z,13.32
2022-11-20T18:11:16.301Z,6.30
2022-11-20T18:14:03.176Z,14.10
2022-11-20T18:16:33.545Z,9.00
2022-11-20T18:19:02.111Z,12.80
2022-11-20T18:21:31.463Z,10.68
2022-11-20T18:26:28.736Z,11.07
2022-11-20T18:28:56.641Z,20.40
2022-11-20T18:31:24.952Z,16.20
2022-11-20T18:33:54.809Z,15.82
2022-11-20T18:36:24.743Z,16.83
2022-11-20T18:38:56.025Z,12.38
2022-11-20T18:41:44.873Z,24.85
2022-11-20T18:44:33.186Z,8.38
2022-11-20T18:47:01.119Z,14.48
2022-11-20T18:49:29.116Z,11.85
2022-11-20T18:51:56.952Z,15.10
2022-11-20T18:54:25.628Z,12.50
2022-11-20T18:56:55.033Z,12.27
2022-11-20T18:59:23.140Z,25.65
2022-11-20T19:01:51.425Z,19.05
2022-11-20T19:04:19.519Z,15.93
2022-11-20T19:06:49.808Z,19.15
2022-11-20T19:09:18.282Z,22.98
2022-11-20T19:11:46.110Z,18.30
2022-11-20T19:14:15.700Z,13.43
2022-11-20T19:16:44.286Z,12.68
2022-11-20T19:19:12.782Z,20.52
2022-11-20T19:21:41.084Z,15.50
2022-11-20T19:24:09.943Z,8.98
2022-11-20T19:26:38.295Z,9.38
2022-11-20T19:29:07.415Z,11.20
2022-11-20T19:31:36.565Z,8.27
2022-11-20T19:34:05.300Z,13.32
2022-11-20T19:36:34.387Z,8.43
2022-11-20T19:39:05.511Z,8.18
2022-11-20T19:41:34.998Z,10.70
2022-11-20T19:44:05.262Z,11.07
2022-11-20T19:46:35.178Z,8.80
2022-11-20T19:49:05.240Z,11.90
2022-11-20T19:51:35.336Z,10.10
2022-11-20T19:54:04.203Z,11.80
2022-11-20T19:56:33.685Z,8.75
2022-11-20T19:59:02.087Z,11.40
2022-11-20T20:01:31.769Z,13.10
2022-11-20T20:04:02.637Z,7.20
2022-11-20T20:06:33.348Z,6.03
2022-11-20T20:09:04.095Z,12.60
2022-11-20T20:11:34.065Z,9.60
2022-11-20T20:14:02.682Z,9.57
2022-11-20T20:16:30.677Z,8.07
2022-11-20T20:19:01.254Z,9.63
2022-11-20T20:21:30.570Z,17.08
2022-11-20T20:26:30.170Z,11.25
2022-11-20T20:28:58.368Z,14.60
2022-11-20T20:31:28.841Z,10.93
2022-11-20T20:33:57.136Z,6.97
2022-11-20T20:36:25.637Z,13.50
2022-11-20T20:38:54.293Z,9.77
2022-11-20T20:41:25.385Z,11.32
2022-11-20T20:44:10.900Z,14.88
2022-11-20T20:46:38.803Z,13.65
2022-11-20T20:49:07.319Z,10.57
2022-11-20T20:51:35.223Z,14.95
2022-11-20T20:54:03.530Z,29.77
2022-11-20T20:56:33.288Z,28.23
2022-11-20T21:01:29.269Z,13.27
2022-11-20T21:03:58.311Z,19.17
2022-11-20T21:06:26.820Z,12.30
2022-11-20T21:08:55.890Z,13.07
2022-11-20T21:11:23.701Z,13.27
2022-11-20T21:13:52.919Z,11.95
2022-11-20T21:16:22.381Z,12.30
2022-11-20T21:18:50.667Z,24.25
2022-11-20T21:21:36.339Z,17.70
2022-11-20T21:24:04.725Z,44.90
2022-11-20T21:26:32.601Z,15.13
2022-11-20T21:29:01.760Z,17.58
2022-11-20T21:31:30.898Z,21.00
2022-11-20T21:33:59.259Z,26.63
2022-11-20T21:36:28.786Z,22.33
2022-11-20T21:38:58.702Z,21.50
2022-11-20T21:41:30.203Z,27.13
2022-11-20T21:44:41.506Z,41.45
2022-11-20T21:46:48.306Z,30.80
2022-11-20T21:49:17.558Z,26.95
2022-11-20T21:51:45.412Z,26.65
2022-11-20T21:54:13.504Z,36.90
2022-11-20T21:56:41.298Z,19.83
2022-11-20T21:59:12.879Z,19.58
2022-11-20T22:01:41.497Z,16.70
2022-11-20T22:04:15.706Z,24.88
2022-11-20T22:06:43.568Z,18.98
2022-11-20T22:09:11.774Z,14.18
2022-11-20T22:11:39.658Z,25.77
2022-11-20T22:14:22.283Z,25.08
2022-11-20T22:16:51.525Z,20.42
2022-11-20T22:19:22.114Z,18.42
2022-11-20T22:21:51.013Z,19.10
2022-11-20T22:24:20.460Z,27.63
2022-11-20T22:29:18.293Z,26.38
2022-11-20T22:31:46.173Z,27.33
2022-11-20T22:34:15.133Z,26.25
2022-11-20T22:36:44.715Z,32.38
2022-11-20T22:39:12.570Z,24.33
2022-11-20T22:41:40.306Z,20.60
2022-11-20T22:44:09.280Z,14.48
2022-11-20T22:46:38.595Z,19.27
2022-11-20T22:49:08.731Z,32.05
2022-11-20T22:51:38.676Z,31.33
2022-11-20T22:54:09.826Z,23.65
2022-11-20T22:56:37.608Z,14.93
2022-11-20T22:59:05.643Z,28.10
2022-11-20T23:01:35.237Z,25.65
2022-11-20T23:04:05.635Z,22.40
2022-11-20T23:06:35.107Z,20.77
2022-11-20T23:09:03.004Z,16.70
2022-11-20T23:11:33.038Z,20.30
2022-11-20T23:14:02.603Z,22.25
2022-11-20T23:16:31.731Z,23.90
2022-11-20T23:19:01.957Z,16.45
2022-11-20T23:21:30.028Z,17.35
2022-11-20T23:23:59.632Z,18.55
2022-11-20T23:26:29.088Z,19.58
2022-11-20T23:28:59.799Z,15.45
2022-11-20T23:31:29.598Z,11.95
2022-11-20T23:33:57.776Z,18.15
2022-11-20T23:36:25.603Z,20.48
2022-11-20T23:38:53.442Z,19.13
2022-11-20T23:41:21.268Z,22.13
2022-11-20T23:43:49.072Z,18.30
2022-11-20T23:46:18.311Z,21.60
2022-11-20T23:48:46.512Z,15.70
2022-11-20T23:51:14.840Z,22.00
2022-11-20T23:53:42.853Z,22.92
2022-11-20T23:56:14.242Z,20.83
2022-11-20T23:58:42.663Z,16.85
